sensor_id;sensor_type;location;lat;lon;timestamp;P1;durP1;ratioP1;P2;durP2;ratioP2
21979;SDS011;11154;48.558;9.234;2024-02-26T00:01:41;3.17;;;1.40;;
21979;SDS011;11154;48.558;9.234;2024-02-26T00:03:44;3.90;;;1.25;;
21979;SDS011;11154;48.558;9.234;2024-02-26T00:05:48;1.67;;;1.17;;
21979;SDS011;11154;48.558;9.234;2024-02-26T00:07:50;1.60;;;1.27;;
21979;SDS011;11154;48.558;9.234;2024-02-26T00:09:51;2.40;;;1.20;;
21979;SDS011;11154;48.558;9.234;2024-02-26T00:11:52;2.35;;;1.38;;
21979;SDS011;11154;48.558;9.234;2024-02-26T00:13:54;1.50;;;1.25;;
21979;SDS011;11154;48.558;9.234;2024-02-26T00:15:55;1.90;;;1.55;;
21979;SDS011;11154;48.558;9.234;2024-02-26T00:17:56;1.67;;;1.13;;
21979;SDS011;11154;48.558;9.234;2024-02-26T00:19:57;4.88;;;1.38;;
21979;SDS011;11154;48.558;9.234;2024-02-26T00:22:02;2.47;;;1.30;;
21979;SDS011;11154;48.558;9.234;2024-02-26T00:24:03;1.48;;;1.23;;
21979;SDS011;11154;48.558;9.234;2024-02-26T00:26:05;1.30;;;1.10;;
21979;SDS011;11154;48.558;9.234;2024-02-26T00:28:06;2.33;;;1.30;;
21979;SDS011;11154;48.558;9.234;2024-02-26T00:30:08;1.20;;;1.10;;
21979;SDS011;11154;48.558;9.234;2024-02-26T00:32:10;1.75;;;1.00;;
21979;SDS011;11154;48.558;9.234;2024-02-26T00:34:12;2.05;;;1.08;;
21979;SDS011;11154;48.558;9.234;2024-02-26T00:36:12;1.98;;;1.33;;
21979;SDS011;11154;48.558;9.234;2024-02-26T00:38:15;2.08;;;1.13;;
21979;SDS011;11154;48.558;9.234;2024-02-26T00:40:17;3.05;;;1.20;;
21979;SDS011;11154;48.558;9.234;2024-02-26T00:42:19;1.73;;;1.05;;
21979;SDS011;11154;48.558;9.234;2024-02-26T00:44:20;1.23;;;0.93;;
21979;SDS011;11154;48.558;9.234;2024-02-26T00:46:22;2.50;;;1.20;;
21979;SDS011;11154;48.558;9.234;2024-02-26T00:48:23;1.10;;;1.00;;
21979;SDS011;11154;48.558;9.234;2024-02-26T00:50:25;1.77;;;0.93;;
21979;SDS011;11154;48.558;9.234;2024-02-26T00:52:27;1.52;;;1.08;;
21979;SDS011;11154;48.558;9.234;2024-02-26T00:54:29;1.88;;;1.10;;
21979;SDS011;11154;48.558;9.234;2024-02-26T00:56:31;1.23;;;0.90;;
21979;SDS011;11154;48.558;9.234;2024-02-26T00:58:32;1.20;;;1.00;;
21979;SDS011;11154;48.558;9.234;2024-02-26T01:00:33;1.77;;;1.08;;
21979;SDS011;11154;48.558;9.234;2024-02-26T01:02:34;1.45;;;1.00;;
21979;SDS011;11154;48.558;9.234;2024-02-26T01:04:35;2.35;;;1.20;;
21979;SDS011;11154;48.558;9.234;2024-02-26T01:06:37;1.63;;;0.95;;
21979;SDS011;11154;48.558;9.234;2024-02-26T01:08:38;2.22;;;1.08;;
21979;SDS011;11154;48.558;9.234;2024-02-26T01:10:41;1.75;;;1.00;;
21979;SDS011;11154;48.558;9.234;2024-02-26T01:12:43;3.13;;;1.27;;
21979;SDS011;11154;48.558;9.234;2024-02-26T01:14:45;3.42;;;1.30;;
21979;SDS011;11154;48.558;9.234;2024-02-26T01:16:46;1.33;;;1.08;;
21979;SDS011;11154;48.558;9.234;2024-02-26T01:18:48;1.58;;;1.20;;
21979;SDS011;11154;48.558;9.234;2024-02-26T01:20:50;2.33;;;1.00;;
21979;SDS011;11154;48.558;9.234;2024-02-26T01:22:53;1.35;;;0.90;;
21979;SDS011;11154;48.558;9.234;2024-02-26T01:24:54;1.85;;;1.00;;
21979;SDS011;11154;48.558;9.234;2024-02-26T01:26:58;2.85;;;0.95;;
21979;SDS011;11154;48.558;9.234;2024-02-26T01:28:59;1.27;;;0.95;;
21979;SDS011;11154;48.558;9.234;2024-02-26T01:31:01;1.50;;;1.20;;
21979;SDS011;11154;48.558;9.234;2024-02-26T01:33:05;2.15;;;1.08;;
21979;SDS011;11154;48.558;9.234;2024-02-26T01:35:07;2.40;;;1.20;;
21979;SDS011;11154;48.558;9.234;2024-02-26T01:37:11;2.65;;;1.33;;
21979;SDS011;11154;48.558;9.234;2024-02-26T01:39:11;5.32;;;1.35;;
21979;SDS011;11154;48.558;9.234;2024-02-26T01:41:13;1.65;;;1.13;;
21979;SDS011;11154;48.558;9.234;2024-02-26T01:43:15;1.88;;;1.05;;
21979;SDS011;11154;48.558;9.234;2024-02-26T01:45:17;1.85;;;1.10;;
21979;SDS011;11154;48.558;9.234;2024-02-26T01:47:21;1.83;;;1.10;;
21979;SDS011;11154;48.558;9.234;2024-02-26T01:49:24;2.75;;;1.30;;
21979;SDS011;11154;48.558;9.234;2024-02-26T01:51:25;1.90;;;1.40;;
21979;SDS011;11154;48.558;9.234;2024-02-26T01:53:27;1.50;;;0.90;;
21979;SDS011;11154;48.558;9.234;2024-02-26T01:55:29;1.50;;;0.98;;
21979;SDS011;11154;48.558;9.234;2024-02-26T01:57:30;1.20;;;0.95;;
21979;SDS011;11154;48.558;9.234;2024-02-26T01:59:33;1.48;;;0.80;;
21979;SDS011;11154;48.558;9.234;2024-02-26T02:01:36;1.67;;;1.13;;
21979;SDS011;11154;48.558;9.234;2024-02-26T02:03:39;1.05;;;0.90;;
21979;SDS011;11154;48.558;9.234;2024-02-26T02:05:41;0.75;;;0.70;;
21979;SDS011;11154;48.558;9.234;2024-02-26T02:07:43;1.25;;;0.85;;
21979;SDS011;11154;48.558;9.234;2024-02-26T02:09:44;1.13;;;0.98;;
21979;SDS011;11154;48.558;9.234;2024-02-26T02:11:46;1.50;;;0.88;;
21979;SDS011;11154;48.558;9.234;2024-02-26T02:13:48;2.25;;;0.88;;
21979;SDS011;11154;48.558;9.234;2024-02-26T02:15:51;1.30;;;0.95;;
21979;SDS011;11154;48.558;9.234;2024-02-26T02:17:53;1.10;;;1.00;;
21979;SDS011;11154;48.558;9.234;2024-02-26T02:19:54;1.13;;;0.90;;
21979;SDS011;11154;48.558;9.234;2024-02-26T02:21:56;0.90;;;0.80;;
21979;SDS011;11154;48.558;9.234;2024-02-26T02:23:58;1.50;;;1.10;;
21979;SDS011;11154;48.558;9.234;2024-02-26T02:26:00;1.42;;;1.17;;
21979;SDS011;11154;48.558;9.234;2024-02-26T02:28:01;1.00;;;0.90;;
21979;SDS011;11154;48.558;9.234;2024-02-26T02:30:04;1.50;;;1.10;;
21979;SDS011;11154;48.558;9.234;2024-02-26T02:32:06;2.80;;;1.38;;
21979;SDS011;11154;48.558;9.234;2024-02-26T02:34:09;1.08;;;1.00;;
21979;SDS011;11154;48.558;9.234;2024-02-26T02:36:10;1.27;;;1.00;;
21979;SDS011;11154;48.558;9.234;2024-02-26T02:38:13;1.30;;;1.00;;
21979;SDS011;11154;48.558;9.234;2024-02-26T02:40:15;1.27;;;1.10;;
21979;SDS011;11154;48.558;9.234;2024-02-26T02:42:17;1.48;;;1.20;;
21979;SDS011;11154;48.558;9.234;2024-02-26T02:44:18;1.70;;;0.95;;
21979;SDS011;11154;48.558;9.234;2024-02-26T02:46:19;1.48;;;1.13;;
21979;SDS011;11154;48.558;9.234;2024-02-26T02:48:21;0.98;;;0.73;;
21979;SDS011;11154;48.558;9.234;2024-02-26T02:50:22;1.77;;;1.00;;
21979;SDS011;11154;48.558;9.234;2024-02-26T02:52:24;1.85;;;1.10;;
21979;SDS011;11154;48.558;9.234;2024-02-26T02:54:27;1.15;;;1.05;;
21979;SDS011;11154;48.558;9.234;2024-02-26T02:56:28;1.92;;;1.10;;
21979;SDS011;11154;48.558;9.234;2024-02-26T02:58:30;1.45;;;1.10;;
21979;SDS011;11154;48.558;9.234;2024-02-26T03:00:32;1.30;;;1.05;;
21979;SDS011;11154;48.558;9.234;2024-02-26T03:02:33;1.65;;;1.17;;
21979;SDS011;11154;48.558;9.234;2024-02-26T03:04:35;1.20;;;0.90;;
21979;SDS011;11154;48.558;9.234;2024-02-26T03:06:37;1.27;;;1.15;;
21979;SDS011;11154;48.558;9.234;2024-02-26T03:08:39;1.25;;;1.10;;
21979;SDS011;11154;48.558;9.234;2024-02-26T03:10:43;1.00;;;0.90;;
21979;SDS011;11154;48.558;9.234;2024-02-26T03:12:45;1.40;;;1.00;;
21979;SDS011;11154;48.558;9.234;2024-02-26T03:14:46;1.88;;;1.10;;
21979;SDS011;11154;48.558;9.234;2024-02-26T03:16:48;1.67;;;0.90;;
21979;SDS011;11154;48.558;9.234;2024-02-26T03:18:49;1.55;;;1.30;;
21979;SDS011;11154;48.558;9.234;2024-02-26T03:20:50;1.10;;;1.00;;
21979;SDS011;11154;48.558;9.234;2024-02-26T03:22:52;1.77;;;1.25;;
21979;SDS011;11154;48.558;9.234;2024-02-26T03:24:54;1.42;;;1.27;;
21979;SDS011;11154;48.558;9.234;2024-02-26T03:26:57;1.55;;;1.25;;
21979;SDS011;11154;48.558;9.234;2024-02-26T03:28:58;1.48;;;1.20;;
21979;SDS011;11154;48.558;9.234;2024-02-26T03:30:59;1.50;;;1.27;;
21979;SDS011;11154;48.558;9.234;2024-02-26T03:33:00;1.42;;;1.30;;
21979;SDS011;11154;48.558;9.234;2024-02-26T03:35:02;1.77;;;1.27;;
21979;SDS011;11154;48.558;9.234;2024-02-26T03:37:04;1.33;;;1.00;;
21979;SDS011;11154;48.558;9.234;2024-02-26T03:39:06;1.70;;;1.10;;
21979;SDS011;11154;48.558;9.234;2024-02-26T03:41:09;2.25;;;1.50;;
21979;SDS011;11154;48.558;9.234;2024-02-26T03:43:12;1.27;;;0.90;;
21979;SDS011;11154;48.558;9.234;2024-02-26T03:45:13;1.65;;;0.93;;
21979;SDS011;11154;48.558;9.234;2024-02-26T03:47:15;1.98;;;1.00;;
21979;SDS011;11154;48.558;9.234;2024-02-26T03:49:17;1.55;;;0.90;;
21979;SDS011;11154;48.558;9.234;2024-02-26T03:51:19;0.93;;;0.82;;
21979;SDS011;11154;48.558;9.234;2024-02-26T03:53:20;1.70;;;1.05;;
21979;SDS011;11154;48.558;9.234;2024-02-26T03:55:22;2.03;;;1.27;;
21979;SDS011;11154;48.558;9.234;2024-02-26T03:57:25;2.55;;;1.30;;
21979;SDS011;11154;48.558;9.234;2024-02-26T03:59:28;2.38;;;1.23;;
21979;SDS011;11154;48.558;9.234;2024-02-26T04:01:28;1.42;;;1.00;;
21979;SDS011;11154;48.558;9.234;2024-02-26T04:03:30;1.30;;;0.98;;
21979;SDS011;11154;48.558;9.234;2024-02-26T04:05:31;1.25;;;1.00;;
21979;SDS011;11154;48.558;9.234;2024-02-26T04:07:33;2.95;;;1.10;;
21979;SDS011;11154;48.558;9.234;2024-02-26T04:09:34;2.50;;;1.60;;
21979;SDS011;11154;48.558;9.234;2024-02-26T04:11:35;2.10;;;1.38;;
21979;SDS011;11154;48.558;9.234;2024-02-26T04:13:37;2.35;;;1.40;;
21979;SDS011;11154;48.558;9.234;2024-02-26T04:15:40;2.10;;;1.10;;
21979;SDS011;11154;48.558;9.234;2024-02-26T04:17:42;1.42;;;1.00;;
21979;SDS011;11154;48.558;9.234;2024-02-26T04:19:43;1.15;;;1.00;;
21979;SDS011;11154;48.558;9.234;2024-02-26T04:21:45;1.05;;;0.90;;
21979;SDS011;11154;48.558;9.234;2024-02-26T04:23:47;3.97;;;1.60;;
21979;SDS011;11154;48.558;9.234;2024-02-26T04:25:50;1.63;;;1.20;;
21979;SDS011;11154;48.558;9.234;2024-02-26T04:27:53;3.97;;;1.52;;
21979;SDS011;11154;48.558;9.234;2024-02-26T04:29:55;1.75;;;1.08;;
21979;SDS011;11154;48.558;9.234;2024-02-26T04:31:58;3.00;;;1.38;;
21979;SDS011;11154;48.558;9.234;2024-02-26T04:33:59;2.03;;;1.25;;
21979;SDS011;11154;48.558;9.234;2024-02-26T04:36:00;1.23;;;0.88;;
21979;SDS011;11154;48.558;9.234;2024-02-26T04:38:01;1.05;;;0.80;;
21979;SDS011;11154;48.558;9.234;2024-02-26T04:40:03;1.45;;;1.20;;
21979;SDS011;11154;48.558;9.234;2024-02-26T04:42:06;2.83;;;1.10;;
21979;SDS011;11154;48.558;9.234;2024-02-26T04:44:07;1.80;;;1.20;;
21979;SDS011;11154;48.558;9.234;2024-02-26T04:46:08;2.08;;;1.17;;
21979;SDS011;11154;48.558;9.234;2024-02-26T04:48:11;1.40;;;0.85;;
21979;SDS011;11154;48.558;9.234;2024-02-26T04:50:13;1.85;;;1.17;;
21979;SDS011;11154;48.558;9.234;2024-02-26T04:52:14;1.30;;;1.08;;
21979;SDS011;11154;48.558;9.234;2024-02-26T04:54:16;1.58;;;0.90;;
21979;SDS011;11154;48.558;9.234;2024-02-26T04:56:18;2.47;;;1.33;;
21979;SDS011;11154;48.558;9.234;2024-02-26T04:58:19;2.72;;;1.40;;
21979;SDS011;11154;48.558;9.234;2024-02-26T05:00:20;1.98;;;1.23;;
21979;SDS011;11154;48.558;9.234;2024-02-26T05:02:22;3.15;;;1.20;;
21979;SDS011;11154;48.558;9.234;2024-02-26T05:04:25;1.90;;;1.38;;
21979;SDS011;11154;48.558;9.234;2024-02-26T05:06:26;2.40;;;1.52;;
21979;SDS011;11154;48.558;9.234;2024-02-26T05:08:28;1.75;;;1.35;;
21979;SDS011;11154;48.558;9.234;2024-02-26T05:10:29;3.00;;;1.77;;
21979;SDS011;11154;48.558;9.234;2024-02-26T05:12:30;2.00;;;1.58;;
21979;SDS011;11154;48.558;9.234;2024-02-26T05:14:35;1.98;;;1.40;;
21979;SDS011;11154;48.558;9.234;2024-02-26T05:16:36;2.47;;;1.40;;
21979;SDS011;11154;48.558;9.234;2024-02-26T05:18:38;2.58;;;1.50;;
21979;SDS011;11154;48.558;9.234;2024-02-26T05:20:41;1.95;;;1.20;;
21979;SDS011;11154;48.558;9.234;2024-02-26T05:22:42;3.00;;;1.45;;
21979;SDS011;11154;48.558;9.234;2024-02-26T05:24:43;2.60;;;1.63;;
21979;SDS011;11154;48.558;9.234;2024-02-26T05:26:45;1.98;;;1.50;;
21979;SDS011;11154;48.558;9.234;2024-02-26T05:28:47;4.03;;;2.90;;
21979;SDS011;11154;48.558;9.234;2024-02-26T05:30:49;5.15;;;3.28;;
21979;SDS011;11154;48.558;9.234;2024-02-26T05:32:50;1.65;;;1.25;;
21979;SDS011;11154;48.558;9.234;2024-02-26T05:34:52;3.13;;;1.38;;
21979;SDS011;11154;48.558;9.234;2024-02-26T05:36:55;1.92;;;1.40;;
21979;SDS011;11154;48.558;9.234;2024-02-26T05:38:56;1.92;;;1.40;;
21979;SDS011;11154;48.558;9.234;2024-02-26T05:40:57;1.85;;;1.35;;
21979;SDS011;11154;48.558;9.234;2024-02-26T05:42:59;2.67;;;1.33;;
21979;SDS011;11154;48.558;9.234;2024-02-26T05:45:01;1.80;;;1.15;;
21979;SDS011;11154;48.558;9.234;2024-02-26T05:47:06;1.73;;;1.20;;
21979;SDS011;11154;48.558;9.234;2024-02-26T05:49:07;2.58;;;1.70;;
21979;SDS011;11154;48.558;9.234;2024-02-26T05:51:09;3.22;;;1.40;;
21979;SDS011;11154;48.558;9.234;2024-02-26T05:53:12;2.30;;;1.52;;
21979;SDS011;11154;48.558;9.234;2024-02-26T05:55:13;1.73;;;1.30;;
21979;SDS011;11154;48.558;9.234;2024-02-26T05:57:15;1.88;;;1.30;;
21979;SDS011;11154;48.558;9.234;2024-02-26T05:59:18;2.90;;;1.25;;
21979;SDS011;11154;48.558;9.234;2024-02-26T06:01:20;1.50;;;1.20;;
21979;SDS011;11154;48.558;9.234;2024-02-26T06:03:21;1.83;;;1.40;;
21979;SDS011;11154;48.558;9.234;2024-02-26T06:05:23;1.55;;;1.30;;
21979;SDS011;11154;48.558;9.234;2024-02-26T06:07:25;1.80;;;1.30;;
21979;SDS011;11154;48.558;9.234;2024-02-26T06:09:28;2.42;;;1.30;;
21979;SDS011;11154;48.558;9.234;2024-02-26T06:11:29;2.60;;;1.40;;
21979;SDS011;11154;48.558;9.234;2024-02-26T06:13:31;1.30;;;1.10;;
21979;SDS011;11154;48.558;9.234;2024-02-26T06:15:31;2.83;;;1.20;;
21979;SDS011;11154;48.558;9.234;2024-02-26T06:17:33;4.20;;;2.30;;
21979;SDS011;11154;48.558;9.234;2024-02-26T06:19:35;2.22;;;1.50;;
21979;SDS011;11154;48.558;9.234;2024-02-26T06:21:36;1.50;;;1.40;;
21979;SDS011;11154;48.558;9.234;2024-02-26T06:23:38;2.28;;;1.20;;
21979;SDS011;11154;48.558;9.234;2024-02-26T06:25:43;2.45;;;1.42;;
21979;SDS011;11154;48.558;9.234;2024-02-26T06:27:44;1.80;;;1.17;;
21979;SDS011;11154;48.558;9.234;2024-02-26T06:29:48;5.50;;;1.48;;
21979;SDS011;11154;48.558;9.234;2024-02-26T06:31:48;2.15;;;1.20;;
21979;SDS011;11154;48.558;9.234;2024-02-26T06:33:50;1.65;;;1.35;;
21979;SDS011;11154;48.558;9.234;2024-02-26T06:35:52;1.98;;;1.40;;
21979;SDS011;11154;48.558;9.234;2024-02-26T06:37:54;1.98;;;1.27;;
21979;SDS011;11154;48.558;9.234;2024-02-26T06:39:56;1.42;;;1.25;;
21979;SDS011;11154;48.558;9.234;2024-02-26T06:41:59;2.28;;;1.15;;
21979;SDS011;11154;48.558;9.234;2024-02-26T06:44:01;1.77;;;1.30;;
21979;SDS011;11154;48.558;9.234;2024-02-26T06:46:03;2.25;;;1.40;;
21979;SDS011;11154;48.558;9.234;2024-02-26T06:48:05;1.60;;;1.23;;
21979;SDS011;11154;48.558;9.234;2024-02-26T06:50:06;2.15;;;1.48;;
21979;SDS011;11154;48.558;9.234;2024-02-26T06:52:08;2.55;;;1.70;;
21979;SDS011;11154;48.558;9.234;2024-02-26T06:54:10;3.38;;;1.88;;
21979;SDS011;11154;48.558;9.234;2024-02-26T06:56:12;4.70;;;3.35;;
21979;SDS011;11154;48.558;9.234;2024-02-26T06:58:15;11.85;;;6.70;;
21979;SDS011;11154;48.558;9.234;2024-02-26T07:00:15;8.35;;;5.43;;
21979;SDS011;11154;48.558;9.234;2024-02-26T07:02:17;6.53;;;3.88;;
21979;SDS011;11154;48.558;9.234;2024-02-26T07:04:19;2.63;;;1.73;;
21979;SDS011;11154;48.558;9.234;2024-02-26T07:06:21;5.10;;;1.85;;
21979;SDS011;11154;48.558;9.234;2024-02-26T07:08:22;3.17;;;1.58;;
21979;SDS011;11154;48.558;9.234;2024-02-26T07:10:24;3.03;;;1.70;;
21979;SDS011;11154;48.558;9.234;2024-02-26T07:12:25;8.82;;;6.75;;
21979;SDS011;11154;48.558;9.234;2024-02-26T07:14:28;7.53;;;4.18;;
21979;SDS011;11154;48.558;9.234;2024-02-26T07:16:30;4.07;;;2.28;;
21979;SDS011;11154;48.558;9.234;2024-02-26T07:18:32;3.15;;;2.10;;
21979;SDS011;11154;48.558;9.234;2024-02-26T07:20:33;3.88;;;3.17;;
21979;SDS011;11154;48.558;9.234;2024-02-26T07:22:35;2.97;;;2.30;;
21979;SDS011;11154;48.558;9.234;2024-02-26T07:24:36;4.43;;;2.45;;
21979;SDS011;11154;48.558;9.234;2024-02-26T07:26:38;3.03;;;2.28;;
21979;SDS011;11154;48.558;9.234;2024-02-26T07:28:40;4.40;;;2.30;;
21979;SDS011;11154;48.558;9.234;2024-02-26T07:30:43;4.82;;;1.90;;
21979;SDS011;11154;48.558;9.234;2024-02-26T07:32:44;2.53;;;1.85;;
21979;SDS011;11154;48.558;9.234;2024-02-26T07:34:46;3.97;;;2.10;;
21979;SDS011;11154;48.558;9.234;2024-02-26T07:36:46;3.35;;;2.00;;
21979;SDS011;11154;48.558;9.234;2024-02-26T07:38:48;3.22;;;2.00;;
21979;SDS011;11154;48.558;9.234;2024-02-26T07:40:52;4.60;;;2.33;;
21979;SDS011;11154;48.558;9.234;2024-02-26T07:42:52;2.53;;;2.30;;
21979;SDS011;11154;48.558;9.234;2024-02-26T07:44:54;5.93;;;2.13;;
21979;SDS011;11154;48.558;9.234;2024-02-26T07:46:57;4.38;;;2.00;;
21979;SDS011;11154;48.558;9.234;2024-02-26T07:48:59;2.50;;;1.90;;
21979;SDS011;11154;48.558;9.234;2024-02-26T07:51:00;4.25;;;1.67;;
21979;SDS011;11154;48.558;9.234;2024-02-26T07:53:03;2.65;;;1.85;;
21979;SDS011;11154;48.558;9.234;2024-02-26T07:55:05;7.53;;;2.42;;
21979;SDS011;11154;48.558;9.234;2024-02-26T07:57:08;3.90;;;1.67;;
21979;SDS011;11154;48.558;9.234;2024-02-26T07:59:09;4.03;;;2.20;;
21979;SDS011;11154;48.558;9.234;2024-02-26T08:01:12;2.35;;;1.60;;
21979;SDS011;11154;48.558;9.234;2024-02-26T08:03:15;2.15;;;1.80;;
21979;SDS011;11154;48.558;9.234;2024-02-26T08:05:17;3.88;;;2.10;;
21979;SDS011;11154;48.558;9.234;2024-02-26T08:07:19;2.83;;;1.83;;
21979;SDS011;11154;48.558;9.234;2024-02-26T08:09:21;3.30;;;2.03;;
21979;SDS011;11154;48.558;9.234;2024-02-26T08:11:22;4.30;;;2.03;;
21979;SDS011;11154;48.558;9.234;2024-02-26T08:13:24;4.55;;;2.00;;
21979;SDS011;11154;48.558;9.234;2024-02-26T08:15:26;5.55;;;2.80;;
21979;SDS011;11154;48.558;9.234;2024-02-26T08:17:27;2.72;;;2.00;;
21979;SDS011;11154;48.558;9.234;2024-02-26T08:19:30;7.68;;;2.55;;
21979;SDS011;11154;48.558;9.234;2024-02-26T08:21:32;5.07;;;2.60;;
21979;SDS011;11154;48.558;9.234;2024-02-26T08:23:34;6.35;;;3.83;;
21979;SDS011;11154;48.558;9.234;2024-02-26T08:25:35;4.03;;;1.92;;
21979;SDS011;11154;48.558;9.234;2024-02-26T08:27:37;6.65;;;2.90;;
21979;SDS011;11154;48.558;9.234;2024-02-26T08:29:39;7.15;;;2.92;;
21979;SDS011;11154;48.558;9.234;2024-02-26T08:31:39;4.00;;;2.22;;
21979;SDS011;11154;48.558;9.234;2024-02-26T08:33:41;2.67;;;2.13;;
21979;SDS011;11154;48.558;9.234;2024-02-26T08:35:44;4.13;;;2.28;;
21979;SDS011;11154;48.558;9.234;2024-02-26T08:37:45;2.83;;;2.10;;
21979;SDS011;11154;48.558;9.234;2024-02-26T08:39:46;7.30;;;2.60;;
21979;SDS011;11154;48.558;9.234;2024-02-26T08:41:48;3.20;;;2.10;;
21979;SDS011;11154;48.558;9.234;2024-02-26T08:43:50;6.40;;;2.53;;
21979;SDS011;11154;48.558;9.234;2024-02-26T08:45:50;10.68;;;3.33;;
21979;SDS011;11154;48.558;9.234;2024-02-26T08:47:52;8.32;;;3.38;;
21979;SDS011;11154;48.558;9.234;2024-02-26T08:49:53;5.97;;;2.70;;
21979;SDS011;11154;48.558;9.234;2024-02-26T08:51:57;3.85;;;2.33;;
21979;SDS011;11154;48.558;9.234;2024-02-26T08:53:58;4.97;;;2.22;;
21979;SDS011;11154;48.558;9.234;2024-02-26T08:56:00;3.55;;;2.53;;
21979;SDS011;11154;48.558;9.234;2024-02-26T08:58:02;8.00;;;2.58;;
21979;SDS011;11154;48.558;9.234;2024-02-26T09:00:04;5.32;;;2.65;;
21979;SDS011;11154;48.558;9.234;2024-02-26T09:02:06;6.05;;;2.50;;
21979;SDS011;11154;48.558;9.234;2024-02-26T09:04:09;5.65;;;2.17;;
21979;SDS011;11154;48.558;9.234;2024-02-26T09:06:10;4.13;;;2.30;;
21979;SDS011;11154;48.558;9.234;2024-02-26T09:08:14;5.63;;;2.30;;
21979;SDS011;11154;48.558;9.234;2024-02-26T09:10:16;4.60;;;2.20;;
21979;SDS011;11154;48.558;9.234;2024-02-26T09:12:17;4.10;;;1.88;;
21979;SDS011;11154;48.558;9.234;2024-02-26T09:14:19;4.07;;;2.10;;
21979;SDS011;11154;48.558;9.234;2024-02-26T09:16:20;2.97;;;2.13;;
21979;SDS011;11154;48.558;9.234;2024-02-26T09:18:21;3.15;;;2.13;;
21979;SDS011;11154;48.558;9.234;2024-02-26T09:20:23;4.07;;;2.85;;
21979;SDS011;11154;48.558;9.234;2024-02-26T09:22:25;5.65;;;3.80;;
21979;SDS011;11154;48.558;9.234;2024-02-26T09:24:28;7.40;;;3.55;;
21979;SDS011;11154;48.558;9.234;2024-02-26T09:26:29;5.65;;;4.00;;
21979;SDS011;11154;48.558;9.234;2024-02-26T09:28:30;5.25;;;3.10;;
21979;SDS011;11154;48.558;9.234;2024-02-26T09:30:37;5.75;;;3.35;;
21979;SDS011;11154;48.558;9.234;2024-02-26T09:32:39;4.35;;;2.83;;
21979;SDS011;11154;48.558;9.234;2024-02-26T09:34:41;6.18;;;3.15;;
21979;SDS011;11154;48.558;9.234;2024-02-26T09:36:43;4.47;;;2.47;;
21979;SDS011;11154;48.558;9.234;2024-02-26T09:38:44;6.93;;;2.20;;
21979;SDS011;11154;48.558;9.234;2024-02-26T09:40:47;2.47;;;1.73;;
21979;SDS011;11154;48.558;9.234;2024-02-26T09:42:49;2.55;;;2.10;;
21979;SDS011;11154;48.558;9.234;2024-02-26T09:44:56;4.25;;;1.80;;
21979;SDS011;11154;48.558;9.234;2024-02-26T09:47:03;2.63;;;2.00;;
21979;SDS011;11154;48.558;9.234;2024-02-26T09:49:06;4.18;;;1.88;;
21979;SDS011;11154;48.558;9.234;2024-02-26T09:51:10;2.88;;;2.05;;
21979;SDS011;11154;48.558;9.234;2024-02-26T09:53:12;3.50;;;2.00;;
21979;SDS011;11154;48.558;9.234;2024-02-26T09:55:14;5.47;;;2.50;;
21979;SDS011;11154;48.558;9.234;2024-02-26T09:57:18;3.50;;;2.60;;
21979;SDS011;11154;48.558;9.234;2024-02-26T09:59:19;5.22;;;2.13;;
21979;SDS011;11154;48.558;9.234;2024-02-26T10:01:21;6.75;;;2.20;;
21979;SDS011;11154;48.558;9.234;2024-02-26T10:03:25;2.75;;;2.10;;
21979;SDS011;11154;48.558;9.234;2024-02-26T10:05:32;3.08;;;2.40;;
21979;SDS011;11154;48.558;9.234;2024-02-26T10:07:35;6.95;;;2.53;;
21979;SDS011;11154;48.558;9.234;2024-02-26T10:09:36;5.18;;;3.03;;
21979;SDS011;11154;48.558;9.234;2024-02-26T10:11:38;8.82;;;2.45;;
21979;SDS011;11154;48.558;9.234;2024-02-26T10:13:44;5.63;;;2.50;;
21979;SDS011;11154;48.558;9.234;2024-02-26T10:15:46;2.83;;;2.40;;
21979;SDS011;11154;48.558;9.234;2024-02-26T10:17:48;8.57;;;2.83;;
21979;SDS011;11154;48.558;9.234;2024-02-26T10:19:49;4.43;;;2.85;;
21979;SDS011;11154;48.558;9.234;2024-02-26T10:21:53;3.88;;;2.17;;
21979;SDS011;11154;48.558;9.234;2024-02-26T10:23:57;2.95;;;2.00;;
21979;SDS011;11154;48.558;9.234;2024-02-26T10:25:59;2.53;;;1.98;;
21979;SDS011;11154;48.558;9.234;2024-02-26T10:28:01;4.05;;;2.70;;
21979;SDS011;11154;48.558;9.234;2024-02-26T10:30:05;3.85;;;2.00;;
21979;SDS011;11154;48.558;9.234;2024-02-26T10:32:17;4.03;;;2.25;;
21979;SDS011;11154;48.558;9.234;2024-02-26T10:34:19;3.30;;;2.10;;
21979;SDS011;11154;48.558;9.234;2024-02-26T10:36:21;3.55;;;2.20;;
21979;SDS011;11154;48.558;9.234;2024-02-26T10:38:23;3.20;;;2.22;;
21979;SDS011;11154;48.558;9.234;2024-02-26T10:40:25;3.92;;;2.10;;
21979;SDS011;11154;48.558;9.234;2024-02-26T10:42:26;3.83;;;2.15;;
21979;SDS011;11154;48.558;9.234;2024-02-26T10:44:27;3.22;;;2.20;;
21979;SDS011;11154;48.558;9.234;2024-02-26T10:46:30;4.90;;;2.40;;
21979;SDS011;11154;48.558;9.234;2024-02-26T10:48:31;4.18;;;2.28;;
21979;SDS011;11154;48.558;9.234;2024-02-26T10:50:33;5.45;;;2.45;;
21979;SDS011;11154;48.558;9.234;2024-02-26T10:52:35;3.80;;;2.10;;
21979;SDS011;11154;48.558;9.234;2024-02-26T10:54:37;5.13;;;2.15;;
21979;SDS011;11154;48.558;9.234;2024-02-26T10:56:43;5.90;;;2.50;;
21979;SDS011;11154;48.558;9.234;2024-02-26T10:58:48;3.72;;;2.17;;
21979;SDS011;11154;48.558;9.234;2024-02-26T11:00:50;3.03;;;2.15;;
21979;SDS011;11154;48.558;9.234;2024-02-26T11:02:53;5.88;;;2.38;;
21979;SDS011;11154;48.558;9.234;2024-02-26T11:04:58;5.68;;;2.60;;
21979;SDS011;11154;48.558;9.234;2024-02-26T11:07:01;5.82;;;2.42;;
21979;SDS011;11154;48.558;9.234;2024-02-26T11:09:03;3.53;;;1.95;;
21979;SDS011;11154;48.558;9.234;2024-02-26T11:11:04;5.18;;;2.00;;
21979;SDS011;11154;48.558;9.234;2024-02-26T11:13:09;3.08;;;2.05;;
21979;SDS011;11154;48.558;9.234;2024-02-26T11:15:13;4.90;;;2.00;;
21979;SDS011;11154;48.558;9.234;2024-02-26T11:17:14;5.63;;;3.25;;
21979;SDS011;11154;48.558;9.234;2024-02-26T11:19:18;4.53;;;2.60;;
21979;SDS011;11154;48.558;9.234;2024-02-26T11:21:20;6.80;;;2.83;;
21979;SDS011;11154;48.558;9.234;2024-02-26T11:23:27;2.85;;;2.33;;
21979;SDS011;11154;48.558;9.234;2024-02-26T11:25:29;3.92;;;1.80;;
21979;SDS011;11154;48.558;9.234;2024-02-26T11:27:32;5.25;;;2.20;;
21979;SDS011;11154;48.558;9.234;2024-02-26T11:29:37;3.33;;;1.70;;
21979;SDS011;11154;48.558;9.234;2024-02-26T11:31:41;3.00;;;1.75;;
21979;SDS011;11154;48.558;9.234;2024-02-26T11:33:42;2.72;;;2.00;;
21979;SDS011;11154;48.558;9.234;2024-02-26T11:35:45;3.63;;;2.00;;
21979;SDS011;11154;48.558;9.234;2024-02-26T11:37:51;4.57;;;2.05;;
21979;SDS011;11154;48.558;9.234;2024-02-26T11:39:54;3.17;;;1.90;;
21979;SDS011;11154;48.558;9.234;2024-02-26T11:41:56;6.35;;;2.10;;
21979;SDS011;11154;48.558;9.234;2024-02-26T11:46:12;4.32;;;1.85;;
21979;SDS011;11154;48.558;9.234;2024-02-26T11:48:25;2.08;;;1.75;;
21979;SDS011;11154;48.558;9.234;2024-02-26T11:50:35;3.65;;;2.00;;
21979;SDS011;11154;48.558;9.234;2024-02-26T11:52:41;2.17;;;1.60;;
21979;SDS011;11154;48.558;9.234;2024-02-26T11:55:31;2.75;;;1.70;;
21979;SDS011;11154;48.558;9.234;2024-02-26T11:57:37;2.10;;;1.58;;
21979;SDS011;11154;48.558;9.234;2024-02-26T11:59:40;4.50;;;1.70;;
21979;SDS011;11154;48.558;9.234;2024-02-26T12:01:42;2.53;;;1.70;;
21979;SDS011;11154;48.558;9.234;2024-02-26T12:03:45;2.13;;;1.45;;
21979;SDS011;11154;48.558;9.234;2024-02-26T12:05:47;3.42;;;1.67;;
21979;SDS011;11154;48.558;9.234;2024-02-26T12:07:52;2.63;;;1.50;;
21979;SDS011;11154;48.558;9.234;2024-02-26T12:12:17;3.38;;;1.98;;
21979;SDS011;11154;48.558;9.234;2024-02-26T12:14:24;2.92;;;1.67;;
21979;SDS011;11154;48.558;9.234;2024-02-26T12:16:34;2.30;;;1.48;;
21979;SDS011;11154;48.558;9.234;2024-02-26T12:18:37;2.05;;;1.50;;
21979;SDS011;11154;48.558;9.234;2024-02-26T12:20:41;2.60;;;1.45;;
21979;SDS011;11154;48.558;9.234;2024-02-26T12:22:44;1.77;;;1.30;;